createdAt,value
2022-08-16T00:01:00.667Z,23.20
2022-08-16T00:03:27.839Z,23.20
2022-08-16T00:05:57.634Z,23.20
2022-08-16T00:08:35.873Z,23.20
2022-08-16T00:11:04.021Z,23.20
2022-08-16T00:13:41.710Z,23.10
2022-08-16T00:17:01.177Z,23.10
2022-08-16T00:18:56.047Z,23.10
2022-08-16T00:21:23.283Z,23.10
2022-08-16T00:23:50.046Z,23.10
2022-08-16T00:26:36.230Z,23.10
2022-08-16T00:29:07.510Z,23.00
2022-08-16T00:31:59.292Z,23.10
2022-08-16T00:34:43.419Z,23.10
2022-08-16T00:37:11.469Z,23.00
2022-08-16T00:39:38.996Z,23.00
2022-08-16T00:42:05.914Z,23.00
2022-08-16T00:44:37.112Z,23.00
2022-08-16T00:47:08.607Z,23.00
2022-08-16T00:49:39.578Z,23.00
2022-08-16T00:52:30.100Z,22.90
2022-08-16T00:54:58.734Z,22.90
2022-08-16T00:57:58.229Z,22.90
2022-08-16T01:00:20.215Z,22.90
2022-08-16T01:02:51.119Z,22.90
2022-08-16T01:05:19.087Z,22.90
2022-08-16T01:07:53.225Z,22.90
2022-08-16T01:10:32.781Z,22.90
2022-08-16T01:13:17.330Z,22.90
2022-08-16T01:16:10.307Z,22.80
2022-08-16T01:18:46.533Z,22.80
2022-08-16T01:21:33.272Z,22.80
2022-08-16T01:24:52.223Z,22.80
2022-08-16T01:27:14.998Z,22.80
2022-08-16T01:30:03.534Z,22.70
2022-08-16T01:32:34.237Z,22.80
2022-08-16T01:35:02.947Z,22.70
2022-08-16T01:37:35.775Z,22.70
2022-08-16T01:40:06.853Z,22.70
2022-08-16T01:42:36.509Z,22.70
2022-08-16T01:45:05.834Z,22.70
2022-08-16T01:47:33.944Z,22.70
2022-08-16T01:50:42.685Z,22.70
2022-08-16T01:52:47.971Z,22.70
2022-08-16T01:55:19.061Z,22.70
2022-08-16T01:57:53.222Z,22.70
2022-08-16T02:00:20.847Z,22.70
2022-08-16T02:02:56.443Z,22.70
2022-08-16T02:05:23.778Z,22.70
2022-08-16T02:07:53.736Z,22.70
2022-08-16T02:10:24.242Z,22.70
2022-08-16T02:13:00.617Z,22.70
2022-08-16T02:15:31.147Z,22.70
2022-08-16T02:18:12.491Z,22.70
2022-08-16T02:20:42.740Z,22.70
2022-08-16T02:23:12.638Z,22.70
2022-08-16T02:25:52.769Z,22.70
2022-08-16T02:28:23.960Z,22.70
2022-08-16T02:30:53.557Z,22.70
2022-08-16T02:33:44.282Z,22.70
2022-08-16T02:36:47.673Z,22.70
2022-08-16T02:39:04.992Z,22.70
2022-08-16T02:41:31.802Z,22.70
2022-08-16T02:44:05.927Z,22.70
2022-08-16T02:46:35.625Z,22.70
2022-08-16T02:49:02.450Z,22.70
2022-08-16T02:51:31.666Z,22.70
2022-08-16T02:53:58.711Z,22.70
2022-08-16T02:56:25.533Z,22.60
2022-08-16T02:58:59.247Z,22.60
2022-08-16T03:01:36.442Z,22.60
2022-08-16T03:04:49.601Z,22.60
2022-08-16T03:06:56.638Z,22.60
2022-08-16T03:09:28.585Z,22.60
2022-08-16T03:11:57.099Z,22.60
2022-08-16T03:14:25.074Z,22.60
2022-08-16T03:16:59.587Z,22.60
2022-08-16T03:19:46.967Z,22.50
2022-08-16T03:22:19.220Z,22.50
2022-08-16T03:24:58.404Z,22.50
2022-08-16T03:27:30.722Z,22.50
2022-08-16T03:29:59.779Z,22.50
2022-08-16T03:32:26.648Z,22.50
2022-08-16T03:34:53.596Z,22.50
2022-08-16T03:37:20.353Z,22.40
2022-08-16T03:39:47.471Z,22.40
2022-08-16T03:42:20.287Z,22.30
2022-08-16T03:44:50.042Z,22.30
2022-08-16T03:47:19.343Z,22.30
2022-08-16T03:49:51.844Z,22.30
2022-08-16T03:52:23.729Z,22.30
2022-08-16T03:54:59.492Z,22.30
2022-08-16T03:57:31.665Z,22.30
2022-08-16T04:00:36.255Z,22.30
2022-08-16T04:03:02.743Z,22.30
2022-08-16T04:05:32.475Z,22.30
2022-08-16T04:07:59.191Z,22.30
2022-08-16T04:10:37.211Z,22.30
2022-08-16T04:13:20.567Z,22.30
2022-08-16T04:15:55.404Z,22.30
2022-08-16T04:18:24.031Z,22.30
2022-08-16T04:20:53.663Z,22.20
2022-08-16T04:23:23.525Z,22.20
2022-08-16T04:25:52.255Z,22.20
2022-08-16T04:28:29.715Z,22.20
2022-08-16T04:31:10.610Z,22.20
2022-08-16T04:33:37.603Z,22.20
2022-08-16T04:36:20.534Z,22.20
2022-08-16T04:38:50.082Z,22.20
2022-08-16T04:41:32.285Z,22.20
2022-08-16T04:44:33.072Z,22.30
2022-08-16T04:47:00.820Z,22.30
2022-08-16T04:49:43.808Z,22.30
2022-08-16T04:52:34.756Z,22.30
2022-08-16T04:55:03.491Z,22.30
2022-08-16T04:57:30.563Z,22.30
2022-08-16T04:59:57.458Z,22.30
2022-08-16T05:02:42.231Z,22.30
2022-08-16T05:05:17.735Z,22.30
2022-08-16T05:07:58.228Z,22.20
2022-08-16T05:10:27.829Z,22.20
2022-08-16T05:12:54.672Z,22.20
2022-08-16T05:15:23.675Z,22.20
2022-08-16T05:17:58.785Z,22.20
2022-08-16T05:20:35.174Z,22.20
2022-08-16T05:23:11.409Z,22.20
2022-08-16T05:25:41.004Z,22.20
2022-08-16T05:28:18.650Z,22.20
2022-08-16T05:30:45.974Z,22.20
2022-08-16T05:33:18.265Z,22.20
2022-08-16T05:35:55.039Z,22.30
2022-08-16T05:38:33.181Z,22.30
2022-08-16T05:41:06.441Z,22.30
2022-08-16T05:43:43.353Z,22.40
2022-08-16T05:46:28.720Z,22.40
2022-08-16T05:49:08.897Z,22.40
2022-08-16T05:51:39.927Z,22.40
2022-08-16T05:54:13.854Z,22.40
2022-08-16T05:56:41.449Z,22.40
2022-08-16T05:59:09.832Z,22.40
2022-08-16T06:01:40.576Z,22.40
2022-08-16T06:04:12.961Z,22.50
2022-08-16T06:06:43.551Z,22.40
2022-08-16T06:09:23.414Z,22.40
2022-08-16T06:11:50.158Z,22.50
2022-08-16T06:14:17.612Z,22.50
2022-08-16T06:16:44.481Z,22.40
2022-08-16T06:19:19.530Z,22.50
2022-08-16T06:21:55.118Z,22.50
2022-08-16T06:24:54.348Z,22.50
2022-08-16T06:27:12.237Z,22.50
2022-08-16T06:29:39.870Z,22.60
2022-08-16T06:32:08.919Z,22.60
2022-08-16T06:34:57.151Z,22.70
2022-08-16T06:37:36.832Z,22.70
2022-08-16T06:40:13.018Z,22.70
2022-08-16T06:42:47.881Z,22.70
2022-08-16T06:45:18.015Z,22.80
2022-08-16T06:47:52.977Z,22.80
2022-08-16T06:50:28.604Z,22.80
2022-08-16T06:52:57.935Z,23.00
2022-08-16T06:55:43.384Z,23.00
2022-08-16T06:58:22.091Z,23.00
2022-08-16T07:00:49.908Z,23.10
2022-08-16T07:03:28.095Z,23.20
2022-08-16T07:05:59.175Z,23.20
2022-08-16T07:08:27.455Z,23.20
2022-08-16T07:10:56.861Z,23.30
2022-08-16T07:14:00.171Z,23.30
2022-08-16T07:16:15.546Z,23.40
2022-08-16T07:18:59.021Z,23.50
2022-08-16T07:21:46.395Z,23.60
2022-08-16T07:24:29.677Z,23.70
2022-08-16T07:26:58.906Z,23.80
2022-08-16T07:29:27.465Z,23.90
2022-08-16T07:31:59.100Z,24.00
2022-08-16T07:34:35.050Z,24.00
2022-08-16T07:37:10.249Z,24.10
2022-08-16T07:39:43.441Z,24.10
2022-08-16T07:42:26.078Z,24.20
2022-08-16T07:45:00.222Z,24.30
2022-08-16T07:47:31.806Z,24.40
2022-08-16T07:50:07.584Z,24.40
2022-08-16T07:52:34.955Z,24.50
2022-08-16T07:55:06.481Z,24.50
2022-08-16T07:57:37.635Z,24.60
2022-08-16T08:00:18.430Z,24.60
2022-08-16T08:02:49.234Z,24.50
2022-08-16T08:05:35.945Z,24.60
2022-08-16T08:08:11.741Z,24.50
2022-08-16T08:10:51.237Z,24.60
2022-08-16T08:13:20.527Z,24.70
2022-08-16T08:16:07.362Z,24.70
2022-08-16T08:18:50.581Z,24.70
2022-08-16T08:21:27.577Z,24.70
2022-08-16T08:24:15.355Z,24.80
2022-08-16T08:26:44.832Z,24.80
2022-08-16T08:29:22.595Z,24.90
2022-08-16T08:31:52.193Z,25.00
2022-08-16T08:34:21.172Z,25.00
2022-08-16T08:36:50.150Z,25.10
2022-08-16T08:39:21.634Z,25.20
2022-08-16T08:41:53.105Z,25.20
2022-08-16T08:44:29.043Z,25.30
2022-08-16T08:47:02.702Z,25.30
2022-08-16T08:49:46.031Z,25.40
2022-08-16T08:52:34.497Z,25.50
2022-08-16T08:55:09.551Z,25.60
2022-08-16T08:57:47.704Z,25.60
2022-08-16T09:00:15.918Z,25.70
2022-08-16T09:02:52.162Z,25.70
2022-08-16T09:05:20.000Z,25.80
2022-08-16T09:07:54.807Z,25.80
2022-08-16T09:10:29.463Z,25.80
2022-08-16T09:12:59.166Z,25.90
2022-08-16T09:15:33.118Z,25.80
2022-08-16T09:18:25.069Z,25.90
2022-08-16T09:20:59.121Z,25.90
2022-08-16T09:23:28.959Z,26.00
2022-08-16T09:25:55.720Z,25.90
2022-08-16T09:29:15.607Z,26.00
2022-08-16T09:31:14.515Z,26.00
2022-08-16T09:33:44.280Z,26.00
2022-08-16T09:36:32.039Z,26.00
2022-08-16T09:39:00.218Z,26.00
2022-08-16T09:41:29.964Z,26.00
2022-08-16T09:43:59.470Z,26.00
2022-08-16T09:46:45.750Z,26.00
2022-08-16T09:49:14.443Z,26.00
2022-08-16T09:51:42.515Z,26.10
2022-08-16T09:54:16.791Z,26.00
2022-08-16T09:56:52.489Z,26.00
2022-08-16T09:59:21.059Z,26.10
2022-08-16T10:01:49.941Z,26.10
2022-08-16T10:04:30.199Z,26.00
2022-08-16T10:07:15.163Z,26.00
2022-08-16T10:09:53.807Z,26.00
2022-08-16T10:12:45.492Z,26.00
2022-08-16T10:15:22.152Z,26.00
2022-08-16T10:18:00.039Z,26.00
2022-08-16T10:20:29.469Z,26.00
2022-08-16T10:23:03.642Z,26.00
2022-08-16T10:27:20.843Z,26.10
2022-08-16T10:28:32.238Z,26.10
2022-08-16T10:31:06.376Z,26.20
2022-08-16T10:33:34.359Z,26.20
2022-08-16T10:36:03.884Z,26.20
2022-08-16T10:38:33.021Z,26.20
2022-08-16T10:41:00.737Z,26.20
2022-08-16T10:43:31.131Z,26.30
2022-08-16T10:46:01.335Z,26.30
2022-08-16T10:48:31.655Z,26.30
2022-08-16T10:50:59.204Z,26.30
2022-08-16T10:53:32.819Z,26.30
2022-08-16T10:56:05.377Z,26.30
2022-08-16T10:58:52.481Z,26.40
2022-08-16T11:01:42.987Z,26.50
2022-08-16T11:05:04.621Z,26.50
2022-08-16T11:07:43.321Z,26.70
2022-08-16T11:09:43.232Z,26.70
2022-08-16T11:12:13.904Z,26.80
2022-08-16T11:15:11.222Z,26.90
2022-08-16T11:17:28.441Z,26.90
2022-08-16T11:20:41.402Z,26.90
2022-08-16T11:22:51.292Z,26.90
2022-08-16T11:28:09.954Z,27.00
2022-08-16T11:30:38.874Z,26.90
2022-08-16T11:33:07.164Z,26.90
2022-08-16T11:38:47.493Z,26.90
2022-08-16T11:41:09.677Z,26.80
2022-08-16T11:43:38.067Z,26.80
2022-08-16T11:46:44.611Z,26.70
2022-08-16T11:48:58.265Z,26.70
2022-08-16T11:51:25.047Z,26.60
2022-08-16T11:53:52.038Z,26.60
2022-08-16T11:56:39.629Z,26.50
2022-08-16T11:59:08.459Z,26.50
2022-08-16T12:01:54.719Z,26.50
2022-08-16T12:04:23.064Z,26.40
2022-08-16T12:06:53.539Z,26.40
2022-08-16T12:09:21.944Z,26.40
2022-08-16T12:11:53.038Z,26.40
2022-08-16T12:14:22.905Z,26.40
2022-08-16T12:16:55.189Z,26.40
2022-08-16T12:19:23.470Z,26.40
2022-08-16T12:22:05.764Z,26.40
2022-08-16T12:24:48.002Z,26.50
2022-08-16T12:27:23.232Z,26.50
2022-08-16T12:29:52.888Z,26.60
2022-08-16T12:32:37.961Z,26.60
2022-08-16T12:35:07.949Z,26.60
2022-08-16T12:37:36.818Z,26.60
2022-08-16T12:40:07.666Z,26.70
2022-08-16T12:42:54.245Z,26.60
2022-08-16T12:45:22.002Z,26.60
2022-08-16T12:48:32.940Z,26.60
2022-08-16T12:50:57.391Z,26.60
2022-08-16T12:53:24.197Z,26.50
2022-08-16T12:55:51.105Z,26.50
2022-08-16T12:58:49.884Z,26.40
2022-08-16T13:01:09.457Z,26.40
2022-08-16T13:03:40.580Z,26.40
2022-08-16T13:06:08.123Z,26.40
2022-08-16T13:08:37.774Z,26.30
2022-08-16T13:11:07.772Z,26.40
2022-08-16T13:13:35.622Z,26.30
2022-08-16T13:16:15.347Z,26.30
2022-08-16T13:18:52.745Z,26.30
2022-08-16T13:21:23.881Z,26.40
2022-08-16T13:23:55.577Z,26.40
2022-08-16T13:26:26.170Z,26.60
2022-08-16T13:28:53.654Z,26.70
2022-08-16T13:31:20.492Z,26.80
2022-08-16T13:33:49.581Z,26.90
2022-08-16T13:36:32.239Z,27.00
2022-08-16T13:39:04.748Z,27.20
2022-08-16T13:41:33.793Z,27.40
2022-08-16T13:44:00.902Z,27.50
2022-08-16T13:46:32.409Z,27.60
2022-08-16T13:49:01.747Z,27.80
2022-08-16T13:51:30.804Z,27.90
2022-08-16T13:54:02.580Z,28.00
2022-08-16T13:56:37.494Z,28.10
2022-08-16T13:59:14.206Z,28.10
2022-08-16T14:01:55.661Z,28.10
2022-08-16T14:04:31.430Z,28.10
2022-08-16T14:07:00.977Z,28.10
2022-08-16T14:09:28.638Z,28.10
2022-08-16T14:11:56.824Z,28.00
2022-08-16T14:14:28.706Z,28.00
2022-08-16T14:16:57.316Z,28.00
2022-08-16T14:19:24.058Z,28.10
2022-08-16T14:21:56.599Z,28.20
2022-08-16T14:24:40.602Z,28.30
2022-08-16T14:27:18.025Z,28.40
2022-08-16T14:29:45.799Z,28.60
2022-08-16T14:32:33.990Z,28.90
2022-08-16T14:35:09.142Z,29.20
2022-08-16T14:37:38.657Z,29.70
2022-08-16T14:40:07.236Z,29.90
2022-08-16T14:42:36.932Z,29.70
2022-08-16T14:45:04.790Z,29.50
2022-08-16T14:47:39.441Z,29.40
2022-08-16T14:50:08.997Z,29.20
2022-08-16T14:52:58.485Z,28.90
2022-08-16T14:55:26.427Z,28.80
2022-08-16T14:57:54.437Z,28.60
2022-08-16T15:00:21.468Z,28.50
2022-08-16T15:03:00.922Z,28.40
2022-08-16T15:08:03.403Z,28.20
2022-08-16T15:10:32.224Z,28.00
2022-08-16T15:13:01.433Z,28.00
2022-08-16T15:15:29.303Z,27.80
2022-08-16T15:18:01.785Z,27.80
2022-08-16T15:20:30.704Z,27.70
2022-08-16T15:22:58.935Z,27.70
2022-08-16T15:25:30.593Z,27.60
2022-08-16T15:27:58.714Z,27.60
2022-08-16T15:30:57.950Z,27.50
2022-08-16T15:33:18.267Z,27.50
2022-08-16T15:35:47.404Z,27.50
2022-08-16T15:38:31.607Z,27.40
2022-08-16T15:41:04.868Z,27.40
2022-08-16T15:43:39.151Z,27.40
2022-08-16T15:46:35.805Z,27.30
2022-08-16T15:49:09.724Z,27.30
2022-08-16T15:51:39.203Z,27.30
2022-08-16T15:54:21.301Z,27.30
2022-08-16T15:56:55.473Z,27.30
2022-08-16T15:59:24.536Z,27.20
2022-08-16T16:01:56.676Z,27.20
2022-08-16T16:04:28.439Z,27.20
2022-08-16T16:06:56.030Z,27.20
2022-08-16T16:09:37.027Z,27.20
2022-08-16T16:12:41.524Z,27.20
2022-08-16T16:14:54.939Z,27.10
2022-08-16T16:17:24.587Z,27.20
2022-08-16T16:19:53.979Z,27.10
2022-08-16T16:22:21.334Z,27.10
2022-08-16T16:24:50.020Z,27.10
2022-08-16T16:27:16.827Z,27.10
2022-08-16T16:29:46.340Z,27.10
2022-08-16T16:32:34.097Z,27.10
2022-08-16T16:35:06.081Z,27.00
2022-08-16T16:37:33.160Z,27.00
2022-08-16T16:40:01.195Z,27.00
2022-08-16T16:42:31.421Z,27.10
2022-08-16T16:45:01.543Z,27.00
2022-08-16T16:47:29.885Z,27.00
2022-08-16T16:50:12.957Z,27.00
2022-08-16T16:52:44.567Z,27.00
2022-08-16T16:55:12.792Z,27.00
2022-08-16T16:57:57.944Z,27.00
2022-08-16T17:00:30.207Z,27.00
2022-08-16T17:03:05.596Z,27.00
2022-08-16T17:05:32.859Z,27.00
2022-08-16T17:08:00.132Z,27.00
2022-08-16T17:10:46.009Z,27.00
2022-08-16T17:13:14.580Z,27.00
2022-08-16T17:15:42.018Z,27.00
2022-08-16T17:19:15.609Z,27.00
2022-08-16T17:21:00.193Z,26.90
2022-08-16T17:23:59.550Z,26.90
2022-08-16T17:26:13.825Z,26.90
2022-08-16T17:28:58.685Z,26.90
2022-08-16T17:31:38.324Z,26.90
2022-08-16T17:34:30.649Z,26.80
2022-08-16T17:37:00.659Z,26.80
2022-08-16T17:39:33.435Z,26.80
2022-08-16T17:42:01.282Z,26.70
2022-08-16T17:44:28.764Z,26.70
2022-08-16T17:46:55.502Z,26.70
2022-08-16T17:49:24.746Z,26.60
2022-08-16T17:51:51.534Z,26.60
2022-08-16T17:54:20.587Z,26.60
2022-08-16T17:56:56.947Z,26.60
2022-08-16T17:59:26.237Z,26.50
2022-08-16T18:01:57.749Z,26.50
2022-08-16T18:04:49.003Z,26.50
2022-08-16T18:07:11.941Z,26.50
2022-08-16T18:09:40.805Z,26.50
2022-08-16T18:12:55.495Z,26.40
2022-08-16T18:15:06.449Z,26.40
2022-08-16T18:17:33.268Z,26.40
2022-08-16T18:20:00.169Z,26.30
2022-08-16T18:22:31.134Z,26.30
2022-08-16T18:25:00.672Z,26.30
2022-08-16T18:27:32.654Z,26.30
2022-08-16T18:29:59.561Z,26.20
2022-08-16T18:32:28.522Z,26.30
2022-08-16T18:34:59.915Z,26.20
2022-08-16T18:37:26.754Z,26.20
2022-08-16T18:39:53.604Z,26.20
2022-08-16T18:42:20.534Z,26.20
2022-08-16T18:44:51.951Z,26.00
2022-08-16T18:47:21.278Z,26.10
2022-08-16T18:49:50.257Z,26.10
2022-08-16T18:52:25.262Z,26.00
2022-08-16T18:55:02.248Z,26.00
2022-08-16T18:57:42.549Z,26.00
2022-08-16T19:00:13.201Z,26.00
2022-08-16T19:02:56.051Z,25.90
2022-08-16T19:05:26.897Z,25.90
2022-08-16T19:07:53.636Z,25.80
2022-08-16T19:10:20.476Z,25.90
2022-08-16T19:12:47.330Z,25.80
2022-08-16T19:15:19.454Z,25.80
2022-08-16T19:17:48.415Z,25.80
2022-08-16T19:20:16.985Z,25.80
2022-08-16T19:25:47.130Z,25.70
2022-08-16T19:28:49.472Z,25.70
2022-08-16T19:31:08.084Z,25.60
2022-08-16T19:33:37.133Z,25.70
2022-08-16T19:36:07.193Z,25.70
2022-08-16T19:38:38.502Z,25.60
2022-08-16T19:41:07.878Z,25.70
2022-08-16T19:43:34.654Z,25.60
2022-08-16T19:46:01.464Z,25.60
2022-08-16T19:48:28.250Z,25.60
2022-08-16T19:50:57.478Z,25.60
2022-08-16T19:53:24.961Z,25.50
2022-08-16T19:55:51.754Z,25.60
2022-08-16T19:58:21.682Z,25.50
2022-08-16T20:00:52.258Z,25.50
2022-08-16T20:03:47.884Z,25.50
2022-08-16T20:06:38.196Z,25.50
2022-08-16T20:09:03.694Z,25.40
2022-08-16T20:11:30.451Z,25.40
2022-08-16T20:13:59.531Z,25.40
2022-08-16T20:16:28.550Z,25.40
2022-08-16T20:18:57.454Z,25.40
2022-08-16T20:21:27.584Z,25.40
2022-08-16T20:24:09.974Z,25.40
2022-08-16T20:26:43.345Z,25.40
2022-08-16T20:29:12.804Z,25.40
2022-08-16T20:31:39.596Z,25.30
2022-08-16T20:34:06.531Z,25.30
2022-08-16T20:36:33.305Z,25.30
2022-08-16T20:39:00.303Z,25.30
2022-08-16T20:41:27.323Z,25.30
2022-08-16T20:43:55.123Z,25.30
2022-08-16T20:46:22.232Z,25.30
2022-08-16T20:48:51.132Z,25.20
2022-08-16T20:51:18.023Z,25.20
2022-08-16T20:53:46.927Z,25.20
2022-08-16T20:56:13.709Z,25.20
2022-08-16T20:58:42.683Z,25.10
2022-08-16T21:01:11.809Z,25.10
2022-08-16T21:03:38.631Z,25.00
2022-08-16T21:06:05.680Z,25.00
2022-08-16T21:08:53.299Z,25.00
2022-08-16T21:11:21.693Z,24.90
2022-08-16T21:13:50.851Z,24.80
2022-08-16T21:16:22.428Z,24.70
2022-08-16T21:18:49.340Z,24.70
2022-08-16T21:21:16.083Z,24.70
2022-08-16T21:23:42.820Z,24.70
2022-08-16T21:26:11.054Z,24.60
2022-08-16T21:28:40.561Z,24.60
2022-08-16T21:31:11.146Z,24.60
2022-08-16T21:33:40.879Z,24.60
2022-08-16T21:36:10.305Z,24.60
2022-08-16T21:38:39.137Z,24.60
2022-08-16T21:41:08.517Z,24.60
2022-08-16T21:43:35.307Z,24.60
2022-08-16T21:46:02.615Z,24.60
2022-08-16T21:48:34.768Z,24.60
2022-08-16T21:51:03.853Z,24.60
2022-08-16T21:53:30.740Z,24.60
2022-08-16T21:56:00.403Z,24.60
2022-08-16T21:58:27.228Z,24.60
2022-08-16T22:00:56.260Z,24.50
2022-08-16T22:03:23.538Z,24.50
2022-08-16T22:06:11.757Z,24.50
2022-08-16T22:08:49.369Z,24.50
2022-08-16T22:11:22.110Z,24.50
2022-08-16T22:13:57.146Z,24.50
2022-08-16T22:16:25.820Z,24.50
2022-08-16T22:18:52.834Z,24.40
2022-08-16T22:21:20.104Z,24.40
2022-08-16T22:23:57.820Z,24.40
2022-08-16T22:26:32.387Z,24.30
2022-08-16T22:29:05.449Z,24.30
2022-08-16T22:31:33.026Z,24.30
2022-08-16T22:34:01.811Z,24.30
2022-08-16T22:36:29.177Z,24.30
2022-08-16T22:39:00.184Z,24.30
2022-08-16T22:41:27.834Z,24.30
2022-08-16T22:43:54.676Z,24.30
2022-08-16T22:46:21.870Z,24.30
2022-08-16T22:48:51.582Z,24.30
2022-08-16T22:51:21.218Z,24.30
2022-08-16T22:53:48.161Z,24.30
2022-08-16T22:56:21.966Z,24.30
2022-08-16T22:58:49.159Z,24.30
2022-08-16T23:01:19.620Z,24.30
2022-08-16T23:03:46.402Z,24.30
2022-08-16T23:06:16.424Z,24.30
2022-08-16T23:08:43.384Z,24.30
2022-08-16T23:11:21.389Z,24.30
2022-08-16T23:13:57.289Z,24.30
2022-08-16T23:16:35.231Z,24.30
2022-08-16T23:19:03.321Z,24.30
2022-08-16T23:21:30.222Z,24.30
2022-08-16T23:23:56.961Z,24.30
2022-08-16T23:26:46.487Z,24.30
2022-08-16T23:29:22.520Z,24.20
2022-08-16T23:31:57.493Z,24.20
2022-08-16T23:34:24.410Z,24.20
2022-08-16T23:36:51.174Z,24.20
2022-08-16T23:39:17.936Z,24.20
2022-08-16T23:41:44.743Z,24.10
2022-08-16T23:44:54.917Z,24.10
2022-08-16T23:47:00.547Z,24.10
2022-08-16T23:50:01.898Z,24.10
2022-08-16T23:52:16.851Z,24.10
2022-08-16T23:54:43.637Z,24.00
2022-08-16T23:57:11.317Z,24.00
2022-08-16T23:59:52.589Z,24.00
